Time;durP1;ratioP1;P1;durP2;ratioP2;P2;SDS_P1;SDS_P2;PMS_P1;PMS_P2;Temp;Humidity;BMP_temperature;BMP_pressure;BME280_temperature;BME280_humidity;BME280_pressure;Samples;Min_cycle;Max_cycle;Signal;HPM_P1;HPM_P2
2021/10/16 00:01:34;;;;;;;23.05;11.68;;;;;;;;;;5096643;28;20074;-86
2021/10/16 00:04:00;;;;;;;21.83;11.07;;;;;;;;;;5095190;28;20032;-86
2021/10/16 00:06:27;;;;;;;26.25;10.38;;;;;;;;;;5095302;28;20028;-87
2021/10/16 00:08:53;;;;;;;23.55;10.88;;;;;;;;;;5096487;28;20028;-86
2021/10/16 00:11:20;;;;;;;34.67;12.18;;;;;;;;;;5095138;28;20032;-85
2021/10/16 00:13:46;;;;;;;20.75;10.90;;;;;;;;;;5095145;28;20024;-85
2021/10/16 00:16:12;;;;;;;27.25;10.07;;;;;;;;;;5096245;28;20028;-85
2021/10/16 00:18:39;;;;;;;23.90;10.85;;;;;;;;;;5096402;28;20027;-86
2021/10/16 00:21:05;;;;;;;24.75;10.57;;;;;;;;;;5094852;28;20054;-86
2021/10/16 00:23:32;;;;;;;25.52;11.80;;;;;;;;;;5096026;28;20468;-86
2021/10/16 00:25:58;;;;;;;19.95;9.65;;;;;;;;;;5094982;28;20027;-83
2021/10/16 00:28:24;;;;;;;22.73;10.77;;;;;;;;;;5094952;28;20446;-83
2021/10/16 00:30:51;;;;;;;24.30;10.15;;;;;;;;;;5096773;28;20445;-83
2021/10/16 00:33:18;;;;;;;19.55;9.45;;;;;;;;;;5096364;28;20020;-83
2021/10/16 00:35:44;;;;;;;28.70;10.85;;;;;;;;;;5094953;28;20032;-84
2021/10/16 00:38:11;;;;;;;30.73;11.93;;;;;;;;;;5096002;28;20020;-85
2021/10/16 00:40:37;;;;;;;27.15;10.95;;;;;;;;;;5094543;28;20032;-86
2021/10/16 00:43:03;;;;;;;26.48;11.93;;;;;;;;;;5094454;28;20031;-85
2021/10/16 00:45:29;;;;;;;16.42;9.45;;;;;;;;;;5094447;28;20042;-85
2021/10/16 00:47:56;;;;;;;25.17;11.45;;;;;;;;;;5095749;28;20384;-91
2021/10/16 00:50:24;;;;;;;25.60;10.25;;;;;;;;;;5094496;28;20024;-88
2021/10/16 00:52:50;;;;;;;23.85;11.23;;;;;;;;;;5095612;28;20388;-85
2021/10/16 00:55:19;;;;;;;22.48;10.13;;;;;;;;;;5095624;28;20026;-85
2021/10/16 00:57:46;;;;;;;19.80;9.48;;;;;;;;;;5094151;28;20039;-86
2021/10/16 01:00:13;;;;;;;20.05;10.63;;;;;;;;;;5093107;28;20100;-85
2021/10/16 01:02:39;;;;;;;19.70;9.95;;;;;;;;;;5094135;28;20024;-85
2021/10/16 01:05:07;;;;;;;20.35;9.00;;;;;;;;;;5094142;28;20118;-85
2021/10/16 01:07:33;;;;;;;22.90;9.65;;;;;;;;;;5094136;28;20055;-86
2021/10/16 01:10:00;;;;;;;24.08;10.23;;;;;;;;;;5093886;28;20028;-86
2021/10/16 01:12:29;;;;;;;18.40;8.77;;;;;;;;;;5093924;28;20020;-86
2021/10/16 01:15:02;;;;;;;19.95;9.35;;;;;;;;;;5093857;28;20028;-85
2021/10/16 01:17:28;;;;;;;18.67;8.73;;;;;;;;;;5093917;28;20038;-87
2021/10/16 01:19:57;;;;;;;22.98;8.75;;;;;;;;;;5093834;28;20556;-86
2021/10/16 01:22:24;;;;;;;17.25;8.70;;;;;;;;;;5093864;28;20125;-87
2021/10/16 01:24:51;;;;;;;19.80;9.00;;;;;;;;;;5093794;28;20044;-87
2021/10/16 01:27:18;;;;;;;20.38;8.10;;;;;;;;;;5093642;28;20361;-85
2021/10/16 01:29:45;;;;;;;19.20;8.73;;;;;;;;;;5093674;28;20032;-85
2021/10/16 01:32:13;;;;;;;21.38;9.52;;;;;;;;;;5095122;28;20028;-86
2021/10/16 01:34:39;;;;;;;20.88;8.70;;;;;;;;;;5094940;28;20036;-85
2021/10/16 01:37:06;;;;;;;20.42;8.75;;;;;;;;;;5094768;28;20058;-86
2021/10/16 01:39:32;;;;;;;23.08;8.85;;;;;;;;;;5094667;28;20120;-85
2021/10/16 01:41:59;;;;;;;18.10;8.18;;;;;;;;;;5095185;28;20028;-86
2021/10/16 01:44:25;;;;;;;19.90;8.85;;;;;;;;;;5094487;28;20039;-86
2021/10/16 01:46:52;;;;;;;20.45;9.52;;;;;;;;;;5095052;28;20024;-86
2021/10/16 01:49:20;;;;;;;15.88;8.25;;;;;;;;;;5093254;28;20082;-86
2021/10/16 01:51:47;;;;;;;18.23;8.57;;;;;;;;;;5093252;28;20027;-87
2021/10/16 01:54:13;;;;;;;19.65;8.45;;;;;;;;;;5093295;28;20566;-87
2021/10/16 01:56:39;;;;;;;21.85;9.15;;;;;;;;;;5092906;28;20042;-86
2021/10/16 01:59:19;;;;;;;17.45;8.85;;;;;;;;;;5094459;28;20526;-86
2021/10/16 02:01:45;;;;;;;20.58;9.20;;;;;;;;;;5093349;28;20016;-85
2021/10/16 02:04:12;;;;;;;21.40;8.55;;;;;;;;;;5093027;28;20047;-85
2021/10/16 02:06:39;;;;;;;23.42;9.27;;;;;;;;;;5092923;28;20069;-86
2021/10/16 02:09:05;;;;;;;19.08;8.93;;;;;;;;;;5092811;28;20035;-86
2021/10/16 02:11:32;;;;;;;17.02;8.68;;;;;;;;;;5093932;28;20032;-86
2021/10/16 02:13:59;;;;;;;21.85;8.57;;;;;;;;;;5092999;28;20110;-86
2021/10/16 02:16:26;;;;;;;17.23;8.82;;;;;;;;;;5092968;28;20031;-86
2021/10/16 02:18:53;;;;;;;21.90;9.05;;;;;;;;;;5093994;28;20032;-86
2021/10/16 02:21:20;;;;;;;22.20;9.77;;;;;;;;;;5093907;28;20024;-86
2021/10/16 02:23:46;;;;;;;16.75;8.73;;;;;;;;;;5092691;28;20036;-85
2021/10/16 02:26:12;;;;;;;25.02;9.82;;;;;;;;;;5092615;28;20020;-86
2021/10/16 02:28:38;;;;;;;22.33;10.00;;;;;;;;;;5092563;28;20035;-86
2021/10/16 02:31:05;;;;;;;21.48;9.52;;;;;;;;;;5092532;28;20123;-85
2021/10/16 02:33:31;;;;;;;21.60;10.45;;;;;;;;;;5092502;28;20016;-85
2021/10/16 02:35:57;;;;;;;21.80;9.35;;;;;;;;;;5092479;28;20499;-86
2021/10/16 02:38:24;;;;;;;20.20;9.45;;;;;;;;;;5092534;28;20377;-86
2021/10/16 02:40:50;;;;;;;20.20;8.82;;;;;;;;;;5092419;28;20024;-86
2021/10/16 02:43:16;;;;;;;20.77;9.40;;;;;;;;;;5092372;28;20032;-86
2021/10/16 02:45:43;;;;;;;17.85;8.90;;;;;;;;;;5094131;28;20024;-85
2021/10/16 02:48:09;;;;;;;18.08;9.18;;;;;;;;;;5093606;28;20460;-85
2021/10/16 02:50:36;;;;;;;17.02;8.80;;;;;;;;;;5092330;28;20035;-86
2021/10/16 02:53:02;;;;;;;16.13;8.93;;;;;;;;;;5093534;28;20035;-86
2021/10/16 02:55:28;;;;;;;17.77;9.25;;;;;;;;;;5093383;28;20035;-87
2021/10/16 02:57:55;;;;;;;22.30;9.93;;;;;;;;;;5092219;28;20480;-86
2021/10/16 03:00:21;;;;;;;19.95;9.00;;;;;;;;;;5092272;28;20047;-86
2021/10/16 03:02:48;;;;;;;17.77;8.60;;;;;;;;;;5092233;28;20032;-85
2021/10/16 03:05:14;;;;;;;19.55;9.95;;;;;;;;;;5093951;28;20036;-86
2021/10/16 03:07:40;;;;;;;16.48;8.77;;;;;;;;;;5092237;28;20046;-86
2021/10/16 03:10:07;;;;;;;21.80;9.98;;;;;;;;;;5092135;28;20114;-86
2021/10/16 03:12:33;;;;;;;20.67;9.48;;;;;;;;;;5093947;28;20024;-86
2021/10/16 03:14:59;;;;;;;19.60;9.30;;;;;;;;;;5092124;28;20058;-86
2021/10/16 03:17:25;;;;;;;18.95;9.40;;;;;;;;;;5092224;28;20024;-87
2021/10/16 03:19:52;;;;;;;18.40;9.95;;;;;;;;;;5092097;28;20028;-86
2021/10/16 03:22:18;;;;;;;18.52;9.88;;;;;;;;;;5093109;28;20058;-86
2021/10/16 03:24:44;;;;;;;18.33;9.50;;;;;;;;;;5095946;28;20040;-86
2021/10/16 03:27:11;;;;;;;20.70;9.52;;;;;;;;;;5097278;28;20487;-86
2021/10/16 03:29:37;;;;;;;19.73;10.63;;;;;;;;;;5096082;28;20045;-86
2021/10/16 03:32:04;;;;;;;18.23;9.45;;;;;;;;;;5095903;28;20028;-86
2021/10/16 03:34:30;;;;;;;22.05;9.75;;;;;;;;;;5097052;28;20017;-87
2021/10/16 03:36:57;;;;;;;19.48;10.02;;;;;;;;;;5097123;28;20092;-86
2021/10/16 03:39:23;;;;;;;20.52;9.57;;;;;;;;;;5095713;28;20468;-87
2021/10/16 03:41:49;;;;;;;19.10;9.45;;;;;;;;;;5095660;28;20110;-86
2021/10/16 03:44:16;;;;;;;20.63;9.82;;;;;;;;;;5095607;28;20036;-86
2021/10/16 03:46:42;;;;;;;24.27;10.15;;;;;;;;;;5095623;28;20119;-87
2021/10/16 03:49:08;;;;;;;19.85;9.32;;;;;;;;;;5095542;28;20028;-86
2021/10/16 03:51:35;;;;;;;20.88;10.23;;;;;;;;;;5095511;28;20024;-86
2021/10/16 03:54:02;;;;;;;21.63;10.20;;;;;;;;;;5095502;28;20020;-86
2021/10/16 03:56:28;;;;;;;18.08;8.60;;;;;;;;;;5096421;28;20056;-86
2021/10/16 03:58:54;;;;;;;24.70;9.68;;;;;;;;;;5095426;28;20081;-87
2021/10/16 04:01:20;;;;;;;18.95;9.23;;;;;;;;;;5095340;28;20469;-87
2021/10/16 04:03:47;;;;;;;22.58;10.45;;;;;;;;;;5095255;28;20060;-86
2021/10/16 04:06:14;;;;;;;16.15;8.82;;;;;;;;;;5095181;28;20020;-86
2021/10/16 04:08:41;;;;;;;21.50;11.35;;;;;;;;;;5096521;28;20020;-87
2021/10/16 04:11:07;;;;;;;19.55;9.38;;;;;;;;;;5095059;28;20024;-87
2021/10/16 04:13:33;;;;;;;21.50;10.05;;;;;;;;;;5095070;28;20503;-86
2021/10/16 04:15:59;;;;;;;21.27;9.75;;;;;;;;;;5095020;28;20089;-86
2021/10/16 04:18:26;;;;;;;22.13;9.55;;;;;;;;;;5096271;28;20086;-86
2021/10/16 04:20:52;;;;;;;19.10;9.82;;;;;;;;;;5096258;28;20125;-87
2021/10/16 04:23:18;;;;;;;23.08;10.27;;;;;;;;;;5094844;28;20043;-85
2021/10/16 04:25:45;;;;;;;20.92;11.20;;;;;;;;;;5094853;28;20036;-86
2021/10/16 04:28:11;;;;;;;24.85;11.60;;;;;;;;;;5096145;28;20361;-86
2021/10/16 04:30:37;;;;;;;23.98;10.77;;;;;;;;;;5094745;28;20119;-86
2021/10/16 04:33:04;;;;;;;21.55;11.45;;;;;;;;;;5095746;28;20093;-86
2021/10/16 04:35:30;;;;;;;19.92;10.20;;;;;;;;;;5094563;28;20051;-86
2021/10/16 04:37:56;;;;;;;19.77;10.82;;;;;;;;;;5096444;28;20492;-86
2021/10/16 04:40:25;;;;;;;20.13;10.32;;;;;;;;;;5094614;28;20074;-87
2021/10/16 04:42:53;;;;;;;25.05;11.98;;;;;;;;;;5094599;28;20069;-85
2021/10/16 04:45:19;;;;;;;68.05;31.58;;;;;;;;;;5094390;28;20512;-86
2021/10/16 04:47:46;;;;;;;47.17;25.05;;;;;;;;;;5094396;28;20384;-87
2021/10/16 04:50:12;;;;;;;37.47;20.48;;;;;;;;;;5096184;28;20453;-87
2021/10/16 04:52:38;;;;;;;39.33;17.35;;;;;;;;;;5094341;28;20083;-85
2021/10/16 04:55:05;;;;;;;27.52;13.57;;;;;;;;;;5094244;28;20040;-86
2021/10/16 04:57:31;;;;;;;24.40;12.23;;;;;;;;;;5094041;28;20181;-86
2021/10/16 04:59:58;;;;;;;22.33;11.77;;;;;;;;;;5094433;28;20478;-86
2021/10/16 05:02:25;;;;;;;22.42;10.93;;;;;;;;;;5094157;28;20038;-86
2021/10/16 05:04:52;;;;;;;19.67;9.70;;;;;;;;;;5093983;28;20032;-86
2021/10/16 05:07:18;;;;;;;18.80;9.60;;;;;;;;;;5095876;28;20016;-86
2021/10/16 05:09:45;;;;;;;25.75;10.63;;;;;;;;;;5094004;28;20036;-86
2021/10/16 05:12:12;;;;;;;25.50;9.63;;;;;;;;;;5094245;28;20107;-86
2021/10/16 05:14:38;;;;;;;25.63;10.57;;;;;;;;;;5094464;28;20024;-87
2021/10/16 05:17:04;;;;;;;23.65;10.50;;;;;;;;;;5094202;28;20032;-85
2021/10/16 05:19:31;;;;;;;25.00;11.13;;;;;;;;;;5093882;28;20089;-85
2021/10/16 05:21:57;;;;;;;24.00;10.45;;;;;;;;;;5095188;28;20107;-86
2021/10/16 05:24:23;;;;;;;25.70;10.60;;;;;;;;;;5096291;28;20036;-85
2021/10/16 05:26:49;;;;;;;19.38;9.77;;;;;;;;;;5093886;28;20032;-86
2021/10/16 05:29:16;;;;;;;17.90;9.52;;;;;;;;;;5094399;28;20053;-84
2021/10/16 05:31:42;;;;;;;19.20;8.88;;;;;;;;;;5095142;28;20052;-86
2021/10/16 05:34:08;;;;;;;22.45;8.02;;;;;;;;;;5093744;28;20473;-85
2021/10/16 05:36:35;;;;;;;15.63;7.78;;;;;;;;;;5094969;28;20099;-85
2021/10/16 05:39:01;;;;;;;29.00;12.50;;;;;;;;;;5095127;28;20024;-85
2021/10/16 05:41:28;;;;;;;21.85;10.63;;;;;;;;;;5093791;28;20061;-90
2021/10/16 05:43:54;;;;;;;24.45;11.13;;;;;;;;;;5094704;28;20086;-86
2021/10/16 05:46:21;;;;;;;23.25;9.98;;;;;;;;;;5092957;28;20020;-86
2021/10/16 05:48:47;;;;;;;18.55;8.63;;;;;;;;;;5094674;28;20052;-85
2021/10/16 05:51:13;;;;;;;15.63;7.85;;;;;;;;;;5093182;28;20024;-85
2021/10/16 05:53:40;;;;;;;19.88;8.38;;;;;;;;;;5093323;28;20020;-92
2021/10/16 05:56:07;;;;;;;17.13;7.45;;;;;;;;;;5094801;28;20052;-91
2021/10/16 05:58:33;;;;;;;16.48;7.85;;;;;;;;;;5095161;28;20016;-87
2021/10/16 06:01:02;;;;;;;18.10;7.63;;;;;;;;;;5093631;28;20032;-85
2021/10/16 06:03:28;;;;;;;14.20;7.05;;;;;;;;;;5097229;28;20029;-91
2021/10/16 06:05:57;;;;;;;13.70;7.72;;;;;;;;;;5094922;28;20028;-90
2021/10/16 06:08:23;;;;;;;14.55;6.90;;;;;;;;;;5094616;28;20477;-87
2021/10/16 06:10:49;;;;;;;18.50;8.48;;;;;;;;;;5092959;28;20396;-87
2021/10/16 06:13:15;;;;;;;20.15;8.77;;;;;;;;;;5092939;28;20020;-87
2021/10/16 06:15:42;;;;;;;15.00;8.30;;;;;;;;;;5092970;28;20111;-87
2021/10/16 06:18:12;;;;;;;17.98;8.60;;;;;;;;;;5092983;28;20027;-88
2021/10/16 06:20:39;;;;;;;16.10;9.23;;;;;;;;;;5092838;28;20416;-89
2021/10/16 06:23:05;;;;;;;19.38;9.93;;;;;;;;;;5092912;28;20029;-87
2021/10/16 06:25:32;;;;;;;17.55;8.27;;;;;;;;;;5094388;28;20423;-87
2021/10/16 06:27:58;;;;;;;19.20;9.80;;;;;;;;;;5092699;28;20020;-90
2021/10/16 06:30:24;;;;;;;21.27;11.02;;;;;;;;;;5093264;28;20035;-87
2021/10/16 06:32:50;;;;;;;17.88;10.43;;;;;;;;;;5092639;28;20473;-88
2021/10/16 06:35:17;;;;;;;21.02;10.88;;;;;;;;;;5092554;28;20024;-88
2021/10/16 06:37:43;;;;;;;17.45;9.88;;;;;;;;;;5092706;28;20136;-88
2021/10/16 06:40:09;;;;;;;15.77;9.85;;;;;;;;;;5092469;28;20024;-89
2021/10/16 06:42:36;;;;;;;19.20;9.50;;;;;;;;;;5092531;28;20434;-88
2021/10/16 06:45:02;;;;;;;13.82;8.27;;;;;;;;;;5093676;28;20532;-86
2021/10/16 06:47:28;;;;;;;13.98;7.38;;;;;;;;;;5092421;28;20027;-86
2021/10/16 06:49:54;;;;;;;15.50;7.95;;;;;;;;;;5092250;28;20416;-86
2021/10/16 06:52:21;;;;;;;13.20;7.20;;;;;;;;;;5092314;28;20494;-86
2021/10/16 06:54:47;;;;;;;12.80;6.53;;;;;;;;;;5093507;28;20028;-87
2021/10/16 06:57:13;;;;;;;12.23;6.75;;;;;;;;;;5094877;28;20059;-86
2021/10/16 06:59:40;;;;;;;10.32;5.82;;;;;;;;;;5096973;28;20476;-86
2021/10/16 07:02:07;;;;;;;12.95;6.55;;;;;;;;;;5098190;28;20020;-86
2021/10/16 07:04:33;;;;;;;11.90;6.25;;;;;;;;;;5097942;28;20032;-86
2021/10/16 07:06:59;;;;;;;10.75;6.15;;;;;;;;;;5096453;28;20028;-86
2021/10/16 07:09:26;;;;;;;10.00;6.50;;;;;;;;;;5097729;28;20468;-86
2021/10/16 07:11:52;;;;;;;10.50;6.55;;;;;;;;;;5096405;28;20043;-86
2021/10/16 07:14:19;;;;;;;10.30;6.63;;;;;;;;;;5096297;28;20394;-86
2021/10/16 07:16:45;;;;;;;11.95;6.80;;;;;;;;;;5096254;28;20107;-87
2021/10/16 07:19:11;;;;;;;8.93;5.85;;;;;;;;;;5096126;28;20020;-87
2021/10/16 07:21:37;;;;;;;9.38;5.30;;;;;;;;;;5096227;28;20069;-88
2021/10/16 07:24:03;;;;;;;8.00;5.65;;;;;;;;;;5097302;28;20036;-87
2021/10/16 07:26:30;;;;;;;10.50;6.03;;;;;;;;;;5096078;28;20028;-86
2021/10/16 07:28:57;;;;;;;8.07;5.18;;;;;;;;;;5097421;28;20028;-85
2021/10/16 07:31:24;;;;;;;9.52;4.95;;;;;;;;;;5097225;28;20035;-87
2021/10/16 07:33:51;;;;;;;11.40;4.60;;;;;;;;;;5096111;28;20381;-86
2021/10/16 07:36:17;;;;;;;7.97;4.43;;;;;;;;;;5097204;28;20031;-86
2021/10/16 07:38:43;;;;;;;7.47;4.50;;;;;;;;;;5097594;28;20537;-87
2021/10/16 07:41:10;;;;;;;8.43;4.75;;;;;;;;;;5097057;28;20070;-87
2021/10/16 07:43:36;;;;;;;10.50;4.57;;;;;;;;;;5096820;28;20180;-87
2021/10/16 07:46:03;;;;;;;7.65;4.68;;;;;;;;;;5096928;28;20028;-88
2021/10/16 07:48:29;;;;;;;8.85;5.43;;;;;;;;;;5096820;28;20103;-88
2021/10/16 07:50:55;;;;;;;9.73;4.75;;;;;;;;;;5096828;28;20077;-88
2021/10/16 07:53:22;;;;;;;8.40;5.20;;;;;;;;;;5095489;28;20058;-88
2021/10/16 07:55:49;;;;;;;7.15;5.00;;;;;;;;;;5095172;28;20075;-88
2021/10/16 07:58:16;;;;;;;7.38;4.72;;;;;;;;;;5096630;28;20035;-86
2021/10/16 08:00:43;;;;;;;8.05;5.03;;;;;;;;;;5096611;28;20059;-86
2021/10/16 08:03:09;;;;;;;8.30;5.10;;;;;;;;;;5096571;28;20103;-87
2021/10/16 08:05:35;;;;;;;9.65;4.95;;;;;;;;;;5096585;28;20484;-88
2021/10/16 08:08:01;;;;;;;14.23;4.95;;;;;;;;;;5094606;28;20016;-89
2021/10/16 08:10:27;;;;;;;9.55;4.35;;;;;;;;;;5095132;28;20028;-87
2021/10/16 08:12:54;;;;;;;7.28;4.55;;;;;;;;;;5095090;28;20521;-89
2021/10/16 08:15:20;;;;;;;6.32;4.60;;;;;;;;;;5095000;28;20477;-86
2021/10/16 08:17:46;;;;;;;6.50;4.25;;;;;;;;;;5094992;28;20377;-87
2021/10/16 08:20:12;;;;;;;6.78;4.45;;;;;;;;;;5096764;28;20035;-89
2021/10/16 08:22:43;;;;;;;5.10;3.63;;;;;;;;;;5094971;28;20021;-86
2021/10/16 08:25:12;;;;;;;6.82;3.67;;;;;;;;;;5096098;28;20119;-88
2021/10/16 08:27:39;;;;;;;6.32;3.55;;;;;;;;;;5094895;28;20058;-88
2021/10/16 08:30:07;;;;;;;8.10;3.78;;;;;;;;;;5094849;28;20089;-89
2021/10/16 08:32:34;;;;;;;5.18;3.53;;;;;;;;;;5096140;28;20103;-92
2021/10/16 08:35:00;;;;;;;11.15;4.63;;;;;;;;;;5094746;28;20031;-89
2021/10/16 08:37:26;;;;;;;5.72;3.55;;;;;;;;;;5094568;28;20024;-87
2021/10/16 08:39:52;;;;;;;4.75;3.20;;;;;;;;;;5096392;28;20484;-87
2021/10/16 08:42:18;;;;;;;5.05;3.45;;;;;;;;;;5094506;28;20032;-89
2021/10/16 08:44:44;;;;;;;7.05;3.78;;;;;;;;;;5094345;28;20040;-90
2021/10/16 08:47:12;;;;;;;4.40;3.03;;;;;;;;;;5094437;28;20530;-87
2021/10/16 08:49:40;;;;;;;5.05;3.30;;;;;;;;;;5094371;28;20560;-86
2021/10/16 08:52:07;;;;;;;6.80;3.30;;;;;;;;;;5094406;28;20020;-86
2021/10/16 08:54:36;;;;;;;6.65;3.60;;;;;;;;;;5094235;28;20040;-86
2021/10/16 08:57:03;;;;;;;5.43;3.45;;;;;;;;;;5094057;28;20124;-85
2021/10/16 08:59:29;;;;;;;5.97;3.72;;;;;;;;;;5095584;28;20039;-87
2021/10/16 09:02:02;;;;;;;4.38;3.33;;;;;;;;;;5094124;28;20024;-85
2021/10/16 09:04:29;;;;;;;11.45;3.33;;;;;;;;;;5094143;28;20082;-86
2021/10/16 09:06:56;;;;;;;7.40;3.50;;;;;;;;;;5094059;28;20043;-85
2021/10/16 09:09:26;;;;;;;6.00;2.70;;;;;;;;;;5095401;28;20038;-86
2021/10/16 09:11:56;;;;;;;4.47;2.83;;;;;;;;;;5093939;28;20020;-86
2021/10/16 09:14:22;;;;;;;3.63;2.45;;;;;;;;;;5093844;28;20043;-86
2021/10/16 09:16:51;;;;;;;3.70;2.30;;;;;;;;;;5095164;28;20089;-86
2021/10/16 09:19:18;;;;;;;4.03;2.50;;;;;;;;;;5093263;28;20023;-86
2021/10/16 09:21:47;;;;;;;4.85;2.60;;;;;;;;;;5093482;28;20028;-85
2021/10/16 09:24:15;;;;;;;3.63;2.40;;;;;;;;;;5094988;28;20027;-86
2021/10/16 09:26:43;;;;;;;4.85;2.53;;;;;;;;;;5093876;28;20024;-86
2021/10/16 09:29:10;;;;;;;5.60;2.42;;;;;;;;;;5094959;28;20028;-85
2021/10/16 09:32:04;;;;;;;2.65;1.25;;;;;;;;;;5094880;28;20055;-86
2021/10/16 09:34:32;;;;;;;4.57;2.58;;;;;;;;;;5090552;28;20427;-86
2021/10/16 09:37:02;;;;;;;6.50;2.13;;;;;;;;;;5093476;28;20020;-86
2021/10/16 09:39:28;;;;;;;3.65;2.17;;;;;;;;;;5095246;28;20028;-85
2021/10/16 09:41:54;;;;;;;3.55;1.90;;;;;;;;;;5094679;28;20050;-85
2021/10/16 09:44:31;;;;;;;14.43;1.90;;;;;;;;;;5093418;28;20029;-86
2021/10/16 09:47:02;;;;;;;5.03;2.28;;;;;;;;;;5094681;28;20028;-86
2021/10/16 09:49:32;;;;;;;3.88;1.80;;;;;;;;;;5093252;28;20031;-86
2021/10/16 09:51:59;;;;;;;3.70;1.73;;;;;;;;;;5093480;28;20107;-86
2021/10/16 09:54:25;;;;;;;4.03;2.30;;;;;;;;;;5094890;28;20040;-86
2021/10/16 09:56:52;;;;;;;2.70;1.58;;;;;;;;;;5094328;28;20047;-87
2021/10/16 09:59:19;;;;;;;3.90;2.10;;;;;;;;;;5094583;28;20514;-86
2021/10/16 10:01:46;;;;;;;3.53;1.73;;;;;;;;;;5093273;28;20023;-86
2021/10/16 10:04:12;;;;;;;3.83;1.80;;;;;;;;;;5093183;28;20124;-85
2021/10/16 10:06:40;;;;;;;3.58;1.88;;;;;;;;;;5093156;28;20024;-84
2021/10/16 10:09:07;;;;;;;6.72;1.55;;;;;;;;;;5093031;28;20020;-87
2021/10/16 10:11:35;;;;;;;2.40;1.45;;;;;;;;;;5093042;28;20055;-87
2021/10/16 10:14:02;;;;;;;5.43;1.60;;;;;;;;;;5092914;28;20056;-86
2021/10/16 10:16:30;;;;;;;3.33;1.48;;;;;;;;;;5094614;28;20024;-87
2021/10/16 10:19:01;;;;;;;3.20;1.40;;;;;;;;;;5093512;28;20028;-84
2021/10/16 10:21:31;;;;;;;3.05;1.67;;;;;;;;;;5092421;28;20016;-85
2021/10/16 10:23:58;;;;;;;3.45;1.63;;;;;;;;;;5092481;28;20073;-86
2021/10/16 10:26:26;;;;;;;5.90;1.48;;;;;;;;;;5092053;28;20503;-87
2021/10/16 10:28:52;;;;;;;4.88;2.10;;;;;;;;;;5093507;28;20016;-85
2021/10/16 10:31:52;;;;;;;4.25;1.65;;;;;;;;;;5091955;28;20446;-86
2021/10/16 10:34:19;;;;;;;2.78;0.77;;;;;;;;;;5048280;28;20395;-87
2021/10/16 10:36:50;;;;;;;2.45;0.95;;;;;;;;;;5091855;28;20020;-86
2021/10/16 10:39:34;;;;;;;3.65;1.52;;;;;;;;;;5093352;28;20049;-85
2021/10/16 10:42:20;;;;;;;3.85;1.23;;;;;;;;;;5092438;28;20531;-86
2021/10/16 10:44:49;;;;;;;4.65;1.00;;;;;;;;;;5078150;28;20506;-90
2021/10/16 10:47:21;;;;;;;5.78;1.10;;;;;;;;;;5093111;28;20020;-85
2021/10/16 10:49:47;;;;;;;2.97;0.98;;;;;;;;;;5092461;28;20024;-85
2021/10/16 10:52:17;;;;;;;3.95;1.13;;;;;;;;;;5092186;28;20031;-86
2021/10/16 10:55:03;;;;;;;2.95;1.08;;;;;;;;;;5092073;28;20047;-86
2021/10/16 10:57:48;;;;;;;2.80;1.00;;;;;;;;;;5078190;28;20066;-85
2021/10/16 11:00:16;;;;;;;6.60;1.10;;;;;;;;;;5092308;28;20044;-87
2021/10/16 11:02:42;;;;;;;1.23;0.60;;;;;;;;;;5093555;28;20020;-92
2021/10/16 11:05:31;;;;;;;4.22;0.90;;;;;;;;;;5094068;28;20480;-86
2021/10/16 11:08:09;;;;;;;1.58;0.65;;;;;;;;;;5092091;28;20071;-87
2021/10/16 11:10:35;;;;;;;2.42;0.63;;;;;;;;;;5080564;28;20036;-86
2021/10/16 11:13:15;;;;;;;1.98;0.73;;;;;;;;;;5072129;28;20036;-85
2021/10/16 11:15:43;;;;;;;6.85;0.50;;;;;;;;;;5072064;28;20493;-86
2021/10/16 11:18:13;;;;;;;3.22;0.52;;;;;;;;;;5073230;28;20025;-86
2021/10/16 11:20:39;;;;;;;1.35;0.50;;;;;;;;;;5072005;28;20436;-86
2021/10/16 11:23:06;;;;;;;1.00;0.47;;;;;;;;;;5072050;28;20031;-87
2021/10/16 11:25:34;;;;;;;3.35;0.80;;;;;;;;;;5073189;28;20025;-86
2021/10/16 11:28:08;;;;;;;2.55;0.63;;;;;;;;;;5072032;28;20111;-86
2021/10/16 11:30:35;;;;;;;4.50;1.08;;;;;;;;;;5071969;28;20025;-87
2021/10/16 11:33:03;;;;;;;2.30;0.70;;;;;;;;;;5071942;28;20050;-86
2021/10/16 11:35:30;;;;;;;3.33;0.57;;;;;;;;;;5071828;28;20037;-86
2021/10/16 11:37:56;;;;;;;2.55;0.57;;;;;;;;;;5071827;28;20113;-87
2021/10/16 11:40:24;;;;;;;3.67;0.77;;;;;;;;;;5071770;28;20036;-86
2021/10/16 11:42:50;;;;;;;2.67;0.80;;;;;;;;;;5072109;28;20028;-85
2021/10/16 11:45:18;;;;;;;2.13;0.55;;;;;;;;;;5075570;28;20112;-85
2021/10/16 11:47:47;;;;;;;3.97;0.80;;;;;;;;;;5075493;28;20473;-86
2021/10/16 11:50:17;;;;;;;4.35;0.90;;;;;;;;;;5075497;28;20062;-86
2021/10/16 11:52:43;;;;;;;4.55;0.90;;;;;;;;;;5075448;28;20024;-84
2021/10/16 11:55:13;;;;;;;4.70;0.93;;;;;;;;;;5075327;28;20033;-86
2021/10/16 11:57:40;;;;;;;2.85;0.80;;;;;;;;;;5074822;28;20025;-87
2021/10/16 12:00:25;;;;;;;2.50;0.65;;;;;;;;;;5076523;28;20500;-86
2021/10/16 12:02:52;;;;;;;3.60;0.80;;;;;;;;;;5075345;28;20032;-85
2021/10/16 12:05:19;;;;;;;2.30;0.65;;;;;;;;;;5076427;28;20481;-86
2021/10/16 12:07:46;;;;;;;2.97;0.98;;;;;;;;;;5075150;28;20043;-83
2021/10/16 12:10:24;;;;;;;3.63;0.80;;;;;;;;;;5075235;28;20071;-85
2021/10/16 12:12:56;;;;;;;4.68;1.25;;;;;;;;;;5075083;28;20024;-84
2021/10/16 12:15:22;;;;;;;3.63;1.00;;;;;;;;;;5086060;28;20036;-87
2021/10/16 12:17:48;;;;;;;4.05;1.20;;;;;;;;;;5095263;28;20032;-88
2021/10/16 12:20:15;;;;;;;4.00;1.23;;;;;;;;;;5099424;28;20024;-87
2021/10/16 12:23:01;;;;;;;4.82;1.10;;;;;;;;;;5103056;28;20024;-85
2021/10/16 12:25:27;;;;;;;4.30;1.25;;;;;;;;;;5099371;28;20028;-85
2021/10/16 12:28:01;;;;;;;4.43;1.00;;;;;;;;;;5096980;28;20025;-87
2021/10/16 12:30:27;;;;;;;3.92;1.23;;;;;;;;;;5095022;28;20452;-85
2021/10/16 12:33:07;;;;;;;4.45;1.38;;;;;;;;;;5095208;28;20073;-90
2021/10/16 12:35:34;;;;;;;6.93;1.27;;;;;;;;;;5094705;28;20505;-87
2021/10/16 12:38:01;;;;;;;3.58;1.00;;;;;;;;;;5094751;28;20031;-85
2021/10/16 12:40:35;;;;;;;6.47;1.30;;;;;;;;;;5096815;28;20088;-86
2021/10/16 12:43:01;;;;;;;3.80;1.05;;;;;;;;;;5094858;28;20020;-85
2021/10/16 12:45:41;;;;;;;3.03;1.00;;;;;;;;;;5095200;28;20035;-89
2021/10/16 12:48:28;;;;;;;4.20;1.10;;;;;;;;;;5094772;28;20073;-85
2021/10/16 12:50:58;;;;;;;4.75;0.77;;;;;;;;;;5094847;28;20062;-89
2021/10/16 12:53:25;;;;;;;2.72;0.88;;;;;;;;;;5094605;28;20032;-85
2021/10/16 12:55:51;;;;;;;4.88;1.20;;;;;;;;;;5094480;28;20032;-89
2021/10/16 12:58:18;;;;;;;4.85;1.25;;;;;;;;;;5094204;28;20068;-87
2021/10/16 13:00:45;;;;;;;4.57;0.85;;;;;;;;;;5094622;28;20457;-92
2021/10/16 13:03:13;;;;;;;6.63;0.80;;;;;;;;;;5095723;28;20020;-86
2021/10/16 13:05:40;;;;;;;8.20;3.03;;;;;;;;;;5094458;28;20024;-88
2021/10/16 13:08:06;;;;;;;19.65;6.70;;;;;;;;;;5094411;28;20396;-86
2021/10/16 13:10:33;;;;;;;7.32;3.03;;;;;;;;;;5094280;28;20028;-86
2021/10/16 13:12:59;;;;;;;4.60;1.17;;;;;;;;;;5094312;28;20024;-88
2021/10/16 13:15:25;;;;;;;4.20;0.98;;;;;;;;;;5093958;28;20385;-85
2021/10/16 13:17:51;;;;;;;5.65;1.05;;;;;;;;;;5094197;28;20035;-86
2021/10/16 13:20:18;;;;;;;6.15;0.82;;;;;;;;;;5094167;28;20032;-87
2021/10/16 13:22:44;;;;;;;3.30;1.10;;;;;;;;;;5095972;28;20028;-87
2021/10/16 13:25:13;;;;;;;5.88;1.25;;;;;;;;;;5095230;28;20026;-89
2021/10/16 13:27:39;;;;;;;3.90;0.77;;;;;;;;;;5099718;28;20463;-89
2021/10/16 13:30:06;;;;;;;3.58;0.77;;;;;;;;;;5094535;28;20072;-90
2021/10/16 13:32:33;;;;;;;7.85;1.17;;;;;;;;;;5094131;28;20035;-85
2021/10/16 13:34:59;;;;;;;6.65;1.20;;;;;;;;;;5093776;28;20040;-88
2021/10/16 13:37:26;;;;;;;9.07;1.20;;;;;;;;;;5093826;28;20024;-85
2021/10/16 13:39:55;;;;;;;7.22;1.00;;;;;;;;;;5095452;28;20365;-88
2021/10/16 13:42:21;;;;;;;8.27;1.10;;;;;;;;;;5094193;28;20043;-85
2021/10/16 13:44:48;;;;;;;7.97;1.30;;;;;;;;;;5093640;28;20024;-87
2021/10/16 13:47:14;;;;;;;3.97;0.88;;;;;;;;;;5093605;28;20108;-93
2021/10/16 13:49:41;;;;;;;8.45;1.10;;;;;;;;;;5093701;28;20020;-87
2021/10/16 13:52:07;;;;;;;2.53;0.65;;;;;;;;;;5093474;28;20028;-86
2021/10/16 13:54:34;;;;;;;10.63;1.23;;;;;;;;;;5093510;28;20063;-89
2021/10/16 13:57:00;;;;;;;4.90;1.30;;;;;;;;;;5094773;28;20028;-91
2021/10/16 13:59:26;;;;;;;5.82;1.67;;;;;;;;;;5093076;28;20105;-87
2021/10/16 14:01:52;;;;;;;3.38;0.73;;;;;;;;;;5093252;28;20115;-85
2021/10/16 14:04:18;;;;;;;4.97;1.20;;;;;;;;;;5095010;28;20028;-87
2021/10/16 14:06:45;;;;;;;5.40;1.60;;;;;;;;;;5092524;28;20028;-85
2021/10/16 14:09:11;;;;;;;3.85;1.25;;;;;;;;;;5094407;28;20055;-88
2021/10/16 14:11:37;;;;;;;8.57;1.83;;;;;;;;;;5093139;28;20047;-87
2021/10/16 14:14:04;;;;;;;9.85;1.95;;;;;;;;;;5092903;28;20024;-85
2021/10/16 14:16:30;;;;;;;3.88;1.73;;;;;;;;;;5094329;28;20028;-85
2021/10/16 14:18:58;;;;;;;7.22;1.50;;;;;;;;;;5093129;28;20031;-87
2021/10/16 14:21:24;;;;;;;5.82;1.40;;;;;;;;;;5094818;28;20023;-87
2021/10/16 14:23:51;;;;;;;8.02;2.00;;;;;;;;;;5092910;28;20028;-89
2021/10/16 14:26:17;;;;;;;6.90;1.50;;;;;;;;;;5092776;28;20476;-87
2021/10/16 14:28:44;;;;;;;3.42;1.00;;;;;;;;;;5093008;28;20078;-87
2021/10/16 14:31:10;;;;;;;7.70;1.80;;;;;;;;;;5094078;28;20482;-86
2021/10/16 14:33:36;;;;;;;5.10;1.70;;;;;;;;;;5092672;28;20061;-88
2021/10/16 14:36:03;;;;;;;8.80;2.10;;;;;;;;;;5093071;28;20046;-86